Time;durP1;ratioP1;P1;durP2;ratioP2;P2;SDS_P1;SDS_P2;PMS_P1;PMS_P2;Temp;Humidity;BMP_temperature;BMP_pressure;BME280_temperature;BME280_humidity;BME280_pressure;Samples;Min_cycle;Max_cycle;Signal;HPM_P1;HPM_P2
2021/09/20 00:02:07;;;;;;;1.17;0.50;;;;;;;;;;6223136;28;20057;-73
2021/09/20 00:05:10;;;;;;;1.00;0.40;;;;;;;;;;6218074;28;20178;-82
2021/09/20 00:08:11;;;;;;;0.85;0.50;;;;;;;;;;6223579;28;20506;-73
2021/09/20 00:11:13;;;;;;;0.75;0.40;;;;;;;;;;6240731;28;20100;-73
2021/09/20 00:14:14;;;;;;;0.30;0.22;;;;;;;;;;6241903;28;20056;-77
2021/09/20 00:17:17;;;;;;;0.90;0.43;;;;;;;;;;6214191;28;20088;-82
2021/09/20 00:20:19;;;;;;;2.20;0.60;;;;;;;;;;6237263;28;20049;-83
2021/09/20 00:23:21;;;;;;;1.02;0.50;;;;;;;;;;6246334;28;20045;-75
2021/09/20 00:26:23;;;;;;;1.38;0.43;;;;;;;;;;6241732;28;20452;-77
2021/09/20 00:29:24;;;;;;;1.00;0.70;;;;;;;;;;6246398;28;20204;-73
2021/09/20 00:32:27;;;;;;;1.38;0.63;;;;;;;;;;6232878;28;20166;-75
2021/09/20 00:35:29;;;;;;;1.40;0.70;;;;;;;;;;6243767;28;20067;-85
2021/09/20 00:38:30;;;;;;;2.75;0.80;;;;;;;;;;6248870;28;20538;-74
2021/09/20 00:41:32;;;;;;;1.58;0.88;;;;;;;;;;6243075;28;20501;-73
2021/09/20 00:44:34;;;;;;;2.00;0.80;;;;;;;;;;6248001;28;20049;-75
2021/09/20 00:47:37;;;;;;;1.17;0.60;;;;;;;;;;6239603;28;20123;-74
2021/09/20 00:50:39;;;;;;;3.10;0.90;;;;;;;;;;6241008;28;20128;-73
2021/09/20 00:53:40;;;;;;;2.20;0.70;;;;;;;;;;6247154;28;20060;-73
2021/09/20 00:56:43;;;;;;;2.47;0.70;;;;;;;;;;6247973;28;20048;-74
2021/09/20 00:59:45;;;;;;;3.85;0.60;;;;;;;;;;6249733;28;20175;-72
2021/09/20 01:02:48;;;;;;;2.42;0.60;;;;;;;;;;6234961;28;20576;-72
2021/09/20 01:05:49;;;;;;;1.10;0.50;;;;;;;;;;6244088;28;20198;-75
2021/09/20 01:08:51;;;;;;;1.17;0.88;;;;;;;;;;6246077;28;20065;-75
2021/09/20 01:11:53;;;;;;;2.00;0.70;;;;;;;;;;6250043;28;20513;-75
2021/09/20 01:14:56;;;;;;;1.40;0.70;;;;;;;;;;6256752;28;20045;-73
2021/09/20 01:17:59;;;;;;;0.90;0.52;;;;;;;;;;6247407;28;20179;-72
2021/09/20 01:21:01;;;;;;;0.50;0.40;;;;;;;;;;6245086;28;20066;-76
2021/09/20 01:24:05;;;;;;;0.88;0.50;;;;;;;;;;6254049;28;20046;-72
2021/09/20 01:27:06;;;;;;;2.03;0.47;;;;;;;;;;6248539;28;20128;-74
2021/09/20 01:30:10;;;;;;;1.20;0.40;;;;;;;;;;6250328;28;20096;-82
2021/09/20 01:33:12;;;;;;;0.50;0.47;;;;;;;;;;6242930;28;20049;-72
2021/09/20 01:36:14;;;;;;;0.60;0.50;;;;;;;;;;6242968;28;20040;-72
2021/09/20 01:39:18;;;;;;;0.55;0.40;;;;;;;;;;6250076;28;20048;-72
2021/09/20 01:42:20;;;;;;;1.25;0.50;;;;;;;;;;6242055;28;20049;-72
2021/09/20 01:45:23;;;;;;;2.10;1.08;;;;;;;;;;6248319;28;20121;-79
2021/09/20 01:48:25;;;;;;;1.17;0.70;;;;;;;;;;6248421;28;20684;-72
2021/09/20 01:51:26;;;;;;;1.02;0.50;;;;;;;;;;6246579;28;20556;-72
2021/09/20 01:54:29;;;;;;;0.75;0.50;;;;;;;;;;6249084;28;20063;-72
2021/09/20 01:57:31;;;;;;;0.80;0.55;;;;;;;;;;6232973;28;20105;-72
2021/09/20 02:00:33;;;;;;;0.65;0.50;;;;;;;;;;6208077;28;20053;-73
2021/09/20 02:03:34;;;;;;;0.85;0.50;;;;;;;;;;6234610;28;20055;-73
2021/09/20 02:06:36;;;;;;;1.10;0.65;;;;;;;;;;6242969;28;20116;-72
2021/09/20 02:09:39;;;;;;;1.08;0.70;;;;;;;;;;6244022;28;20045;-72
2021/09/20 02:12:41;;;;;;;1.03;0.40;;;;;;;;;;6243261;28;20144;-72
2021/09/20 02:15:42;;;;;;;0.65;0.50;;;;;;;;;;6242164;28;20513;-76
2021/09/20 02:18:44;;;;;;;2.63;0.80;;;;;;;;;;6243282;28;20100;-72
2021/09/20 02:21:46;;;;;;;1.23;0.70;;;;;;;;;;6243594;28;20072;-72
2021/09/20 02:24:49;;;;;;;1.98;0.77;;;;;;;;;;6246268;28;20191;-73
2021/09/20 02:27:51;;;;;;;1.10;0.70;;;;;;;;;;6243507;28;20130;-72
2021/09/20 02:30:52;;;;;;;1.20;0.80;;;;;;;;;;6239929;28;20053;-72
2021/09/20 02:33:54;;;;;;;1.00;0.63;;;;;;;;;;6243458;28;20077;-72
2021/09/20 02:36:55;;;;;;;1.45;0.70;;;;;;;;;;6240229;28;20378;-72
2021/09/20 02:39:58;;;;;;;2.63;0.63;;;;;;;;;;6245519;28;20758;-72
2021/09/20 02:43:00;;;;;;;2.23;0.93;;;;;;;;;;6238480;28;20123;-72
2021/09/20 02:46:02;;;;;;;1.85;0.50;;;;;;;;;;6236854;28;20057;-79
2021/09/20 02:49:04;;;;;;;1.60;0.50;;;;;;;;;;6245984;28;20093;-72
2021/09/20 02:52:06;;;;;;;0.70;0.43;;;;;;;;;;6244842;28;20118;-73
2021/09/20 02:55:11;;;;;;;1.23;0.45;;;;;;;;;;6248326;28;20124;-76
2021/09/20 02:58:12;;;;;;;2.95;0.60;;;;;;;;;;6248710;28;20107;-72
2021/09/20 03:01:14;;;;;;;1.20;0.60;;;;;;;;;;6239394;28;20045;-72
2021/09/20 03:04:15;;;;;;;1.27;0.50;;;;;;;;;;6251481;28;20068;-71
2021/09/20 03:07:17;;;;;;;0.50;0.30;;;;;;;;;;6246758;28;20049;-72
2021/09/20 03:10:20;;;;;;;1.08;0.30;;;;;;;;;;6248187;28;20099;-82
2021/09/20 03:13:22;;;;;;;0.55;0.40;;;;;;;;;;6250460;28;20069;-73
2021/09/20 03:16:23;;;;;;;1.55;0.70;;;;;;;;;;6223211;28;20045;-72
2021/09/20 03:19:25;;;;;;;1.83;0.40;;;;;;;;;;6243345;28;20053;-72
2021/09/20 03:22:27;;;;;;;0.52;0.50;;;;;;;;;;6237872;28;20049;-79
2021/09/20 03:25:30;;;;;;;1.25;0.30;;;;;;;;;;6243156;28;20123;-80
2021/09/20 03:28:31;;;;;;;0.30;0.30;;;;;;;;;;6244303;28;20072;-72
2021/09/20 03:31:34;;;;;;;2.60;0.40;;;;;;;;;;6240663;28;20049;-72
2021/09/20 03:34:35;;;;;;;0.47;0.28;;;;;;;;;;6245752;28;20509;-72
2021/09/20 03:37:37;;;;;;;1.45;0.40;;;;;;;;;;6239286;28;20530;-74
2021/09/20 03:40:40;;;;;;;1.08;0.40;;;;;;;;;;6242801;28;20640;-72
2021/09/20 03:43:42;;;;;;;0.73;0.57;;;;;;;;;;6245846;28;20053;-72
2021/09/20 03:46:43;;;;;;;2.55;0.43;;;;;;;;;;6236954;28;20151;-72
2021/09/20 03:49:45;;;;;;;0.45;0.30;;;;;;;;;;6243686;28;20136;-72
2021/09/20 03:52:47;;;;;;;2.05;0.75;;;;;;;;;;6234423;28;20489;-72
2021/09/20 03:55:50;;;;;;;1.80;0.50;;;;;;;;;;6242471;28;20460;-72
2021/09/20 03:58:53;;;;;;;3.00;0.30;;;;;;;;;;6235397;28;20108;-72
2021/09/20 04:01:56;;;;;;;0.30;0.22;;;;;;;;;;6231823;28;20046;-72
2021/09/20 04:04:57;;;;;;;1.23;0.40;;;;;;;;;;6244941;28;20585;-80
2021/09/20 04:07:59;;;;;;;1.67;0.30;;;;;;;;;;6243714;28;20132;-72
2021/09/20 04:11:02;;;;;;;1.17;0.60;;;;;;;;;;6242281;28;20048;-73
2021/09/20 04:14:03;;;;;;;2.08;0.50;;;;;;;;;;6248664;28;20128;-72
2021/09/20 04:17:06;;;;;;;1.17;0.40;;;;;;;;;;6242728;28;20080;-76
2021/09/20 04:20:09;;;;;;;1.02;0.43;;;;;;;;;;6247158;28;20055;-82
2021/09/20 04:23:10;;;;;;;2.97;0.60;;;;;;;;;;6231886;28;20050;-72
2021/09/20 04:26:13;;;;;;;2.65;0.70;;;;;;;;;;6223241;28;20431;-72
2021/09/20 04:29:15;;;;;;;2.53;0.50;;;;;;;;;;6224522;28;20042;-77
2021/09/20 04:32:17;;;;;;;1.23;0.43;;;;;;;;;;6213577;28;20122;-80
2021/09/20 04:35:19;;;;;;;3.53;0.70;;;;;;;;;;6231093;28;20151;-79
2021/09/20 04:38:21;;;;;;;0.47;0.40;;;;;;;;;;6226759;28;20203;-72
2021/09/20 04:41:24;;;;;;;2.00;0.70;;;;;;;;;;6219748;28;20129;-72
2021/09/20 04:44:25;;;;;;;2.93;0.60;;;;;;;;;;6222966;28;20545;-72
2021/09/20 04:47:27;;;;;;;3.63;0.70;;;;;;;;;;6226897;28;20049;-72
2021/09/20 04:50:29;;;;;;;2.55;0.38;;;;;;;;;;6235762;28;20046;-72
2021/09/20 04:53:31;;;;;;;1.35;0.60;;;;;;;;;;6223313;28;20136;-72
2021/09/20 04:56:34;;;;;;;3.08;0.55;;;;;;;;;;6225842;28;20574;-72
2021/09/20 04:59:35;;;;;;;2.90;0.60;;;;;;;;;;6236811;28;20081;-72
2021/09/20 05:02:37;;;;;;;2.20;0.60;;;;;;;;;;6221005;28;20602;-73
2021/09/20 05:05:39;;;;;;;1.38;0.50;;;;;;;;;;6220086;28;20053;-72
2021/09/20 05:08:40;;;;;;;1.98;0.50;;;;;;;;;;6223400;28;20207;-72
2021/09/20 05:11:43;;;;;;;1.38;0.50;;;;;;;;;;6221867;28;20078;-72
2021/09/20 05:14:45;;;;;;;0.93;0.50;;;;;;;;;;6221080;28;20053;-74
2021/09/20 05:17:47;;;;;;;1.20;0.80;;;;;;;;;;6232868;28;20037;-72
2021/09/20 05:20:48;;;;;;;1.40;0.60;;;;;;;;;;6246387;28;20151;-72
2021/09/20 05:23:51;;;;;;;2.38;1.15;;;;;;;;;;6248501;28;20064;-72
2021/09/20 05:26:54;;;;;;;1.88;1.08;;;;;;;;;;6230078;28;20045;-72
2021/09/20 05:29:56;;;;;;;2.07;0.90;;;;;;;;;;6251438;28;20107;-73
2021/09/20 05:32:58;;;;;;;3.05;1.20;;;;;;;;;;6241987;28;20128;-73
2021/09/20 05:36:00;;;;;;;3.03;1.25;;;;;;;;;;6244552;28;20045;-71
2021/09/20 05:39:01;;;;;;;1.55;0.98;;;;;;;;;;6245734;28;20856;-72
2021/09/20 05:42:04;;;;;;;2.22;1.20;;;;;;;;;;6250683;28;20045;-75
2021/09/20 05:45:08;;;;;;;2.00;0.97;;;;;;;;;;6250875;28;20037;-83
2021/09/20 05:48:15;;;;;;;1.83;0.88;;;;;;;;;;6244327;28;20065;-78
2021/09/20 05:51:16;;;;;;;2.03;0.90;;;;;;;;;;6246819;28;20072;-73
2021/09/20 05:54:18;;;;;;;2.03;1.00;;;;;;;;;;6254516;28;20044;-74
2021/09/20 05:57:39;;;;;;;4.13;1.63;;;;;;;;;;6253302;28;20042;-77
2021/09/20 06:00:41;;;;;;;2.40;1.27;;;;;;;;;;6243186;28;20053;-74
2021/09/20 06:03:43;;;;;;;1.70;1.00;;;;;;;;;;6249821;28;20456;-73
2021/09/20 06:06:44;;;;;;;1.70;1.10;;;;;;;;;;6247044;28;20045;-74
2021/09/20 06:09:46;;;;;;;5.18;1.40;;;;;;;;;;6261931;28;20061;-76
2021/09/20 06:12:49;;;;;;;2.03;1.13;;;;;;;;;;6249888;28;20037;-77
2021/09/20 06:15:52;;;;;;;2.67;1.27;;;;;;;;;;6245852;28;20042;-76
2021/09/20 06:18:54;;;;;;;2.45;0.80;;;;;;;;;;6249174;28;20052;-74
2021/09/20 06:21:56;;;;;;;2.53;1.02;;;;;;;;;;6246355;28;20054;-74
2021/09/20 06:24:59;;;;;;;2.95;0.90;;;;;;;;;;6225508;28;20147;-74
2021/09/20 06:28:02;;;;;;;3.38;1.67;;;;;;;;;;6217904;28;20045;-75
2021/09/20 06:31:03;;;;;;;7.32;1.60;;;;;;;;;;6231658;28;20053;-81
2021/09/20 06:34:05;;;;;;;3.28;1.40;;;;;;;;;;6251031;28;20176;-72
2021/09/20 06:37:07;;;;;;;9.73;2.30;;;;;;;;;;6246541;28;20046;-73
2021/09/20 06:40:12;;;;;;;5.25;1.60;;;;;;;;;;6246821;28;20557;-79
2021/09/20 06:43:15;;;;;;;5.72;1.90;;;;;;;;;;6250277;28;20064;-82
2021/09/20 06:46:17;;;;;;;2.80;1.77;;;;;;;;;;6245623;28;20405;-76
2021/09/20 06:49:21;;;;;;;6.68;1.92;;;;;;;;;;6249432;28;20060;-74
2021/09/20 06:52:23;;;;;;;3.63;1.80;;;;;;;;;;6245850;28;20378;-80
2021/09/20 06:55:25;;;;;;;2.70;1.48;;;;;;;;;;6249962;28;20095;-81
2021/09/20 06:58:28;;;;;;;2.65;1.40;;;;;;;;;;6247043;28;21073;-74
2021/09/20 07:01:30;;;;;;;2.63;1.50;;;;;;;;;;6242843;28;20056;-83
2021/09/20 07:04:32;;;;;;;2.80;1.17;;;;;;;;;;6244130;28;20175;-74
2021/09/20 07:07:34;;;;;;;2.75;1.08;;;;;;;;;;6259576;28;20474;-76
2021/09/20 07:10:36;;;;;;;2.83;1.00;;;;;;;;;;6240350;28;20069;-80
2021/09/20 07:13:39;;;;;;;3.15;1.20;;;;;;;;;;6250351;28;20521;-73
2021/09/20 07:16:41;;;;;;;3.03;1.20;;;;;;;;;;6236907;28;20111;-75
2021/09/20 07:19:42;;;;;;;1.65;1.05;;;;;;;;;;6231311;28;20070;-77
2021/09/20 07:22:44;;;;;;;2.70;1.48;;;;;;;;;;6217087;28;20151;-75
2021/09/20 07:25:46;;;;;;;4.43;1.63;;;;;;;;;;6216140;28;20089;-75
2021/09/20 07:28:49;;;;;;;3.80;1.10;;;;;;;;;;6224150;28;20045;-75
2021/09/20 07:31:51;;;;;;;1.95;1.10;;;;;;;;;;6231245;28;20053;-76
2021/09/20 07:34:52;;;;;;;3.28;1.35;;;;;;;;;;6240835;28;20056;-79
2021/09/20 07:37:56;;;;;;;2.97;1.15;;;;;;;;;;6237323;28;20076;-75
2021/09/20 07:40:58;;;;;;;2.70;1.00;;;;;;;;;;6241012;28;20042;-75
2021/09/20 07:44:01;;;;;;;2.40;1.13;;;;;;;;;;6250208;28;20127;-75
2021/09/20 07:47:03;;;;;;;2.70;1.02;;;;;;;;;;6236839;28;20089;-74
2021/09/20 07:50:06;;;;;;;4.10;1.15;;;;;;;;;;6246269;28;20063;-78
2021/09/20 07:53:08;;;;;;;2.47;1.00;;;;;;;;;;6244764;28;20048;-76
2021/09/20 07:56:10;;;;;;;1.92;1.13;;;;;;;;;;6242535;28;20152;-76
2021/09/20 07:59:13;;;;;;;2.15;1.00;;;;;;;;;;6249213;28;20104;-76
2021/09/20 08:02:14;;;;;;;2.40;1.00;;;;;;;;;;6239670;28;20069;-79
2021/09/20 08:05:16;;;;;;;2.60;1.02;;;;;;;;;;6248603;28;20191;-76
2021/09/20 08:08:18;;;;;;;2.10;0.82;;;;;;;;;;6248750;28;20469;-76
2021/09/20 08:11:19;;;;;;;4.13;0.95;;;;;;;;;;6250882;28;20064;-76
2021/09/20 08:14:22;;;;;;;0.80;0.60;;;;;;;;;;6251798;28;20081;-76
2021/09/20 08:17:24;;;;;;;2.17;0.60;;;;;;;;;;6236563;28;20211;-76
2021/09/20 08:20:26;;;;;;;2.50;0.82;;;;;;;;;;6245670;28;20049;-76
2021/09/20 08:23:28;;;;;;;2.65;0.80;;;;;;;;;;6245403;28;20049;-76
2021/09/20 08:26:29;;;;;;;1.27;0.60;;;;;;;;;;6244589;28;20045;-78
2021/09/20 08:29:32;;;;;;;4.93;0.82;;;;;;;;;;6246150;28;20058;-78
2021/09/20 08:32:34;;;;;;;;;;;;;;;;;;6235421;28;20123;-76
2021/09/20 08:35:36;;;;;;;1.27;0.70;;;;;;;;;;6245236;28;20019;-76
2021/09/20 08:38:37;;;;;;;4.07;0.90;;;;;;;;;;6252779;28;20157;-75
2021/09/20 08:41:41;;;;;;;1.95;0.70;;;;;;;;;;6239906;28;20045;-75
2021/09/20 08:44:44;;;;;;;2.80;0.80;;;;;;;;;;6251446;28;20049;-76
2021/09/20 08:47:46;;;;;;;;;;;;;;;;;;6241789;28;20421;-75
2021/09/20 08:50:48;;;;;;;2.72;0.95;;;;;;;;;;6238880;28;19935;-76
2021/09/20 08:53:51;;;;;;;1.67;0.90;;;;;;;;;;6250702;28;20116;-74
2021/09/20 08:56:54;;;;;;;1.75;1.00;;;;;;;;;;6246023;28;20477;-73
2021/09/20 08:59:57;;;;;;;1.38;0.80;;;;;;;;;;6247466;28;20122;-81
2021/09/20 09:02:59;;;;;;;;;;;;;;;;;;6240434;28;20227;-74
2021/09/20 09:06:01;;;;;;;2.55;0.73;;;;;;;;;;6243659;28;19936;-73
2021/09/20 09:09:03;;;;;;;3.60;0.82;;;;;;;;;;6244041;28;20179;-73
2021/09/20 09:12:13;;;;;;;3.72;0.70;;;;;;;;;;6244195;28;20124;-72
2021/09/20 09:15:17;;;;;;;2.33;0.70;;;;;;;;;;6243959;28;20037;-81
2021/09/20 09:18:18;;;;;;;0.85;0.60;;;;;;;;;;6242680;28;20046;-74
2021/09/20 09:21:20;;;;;;;1.55;0.60;;;;;;;;;;6242582;28;20107;-73
2021/09/20 09:24:24;;;;;;;1.73;0.60;;;;;;;;;;6243757;28;20196;-72
2021/09/20 09:27:26;;;;;;;1.65;0.70;;;;;;;;;;6242387;28;20614;-72
2021/09/20 09:30:31;;;;;;;2.67;0.77;;;;;;;;;;6226453;28;20077;-73
2021/09/20 09:33:37;;;;;;;1.25;0.65;;;;;;;;;;6228041;28;20132;-71
2021/09/20 09:36:41;;;;;;;1.05;0.70;;;;;;;;;;6225354;28;20091;-72
2021/09/20 09:39:44;;;;;;;3.08;0.73;;;;;;;;;;6245342;28;20045;-72
2021/09/20 09:42:46;;;;;;;0.90;0.65;;;;;;;;;;6236952;28;20047;-72
2021/09/20 09:45:49;;;;;;;1.27;0.60;;;;;;;;;;6237468;28;20227;-75
2021/09/20 09:48:53;;;;;;;2.20;0.77;;;;;;;;;;6244170;28;20483;-73
2021/09/20 09:52:00;;;;;;;3.30;0.60;;;;;;;;;;6237088;28;20037;-73
2021/09/20 09:55:02;;;;;;;0.63;0.55;;;;;;;;;;6245315;28;20057;-78
2021/09/20 09:58:10;;;;;;;;;;;;;;;;;;6241190;28;20056;-73
2021/09/20 10:01:15;;;;;;;0.93;0.77;;;;;;;;;;6238126;28;19929;-73
2021/09/20 10:04:23;;;;;;;0.90;0.70;;;;;;;;;;6225872;28;20161;-72
2021/09/20 10:07:27;;;;;;;2.78;0.70;;;;;;;;;;6213218;28;22066;-73
2021/09/20 10:10:30;;;;;;;1.35;0.90;;;;;;;;;;6217350;28;20148;-72
2021/09/20 10:13:32;;;;;;;1.17;0.75;;;;;;;;;;6248124;28;20049;-72
2021/09/20 10:16:35;;;;;;;1.38;1.00;;;;;;;;;;6235199;28;20049;-72
2021/09/20 10:19:37;;;;;;;3.00;0.80;;;;;;;;;;6242229;28;20083;-75
2021/09/20 10:22:39;;;;;;;8.27;1.00;;;;;;;;;;6229190;28;20060;-71
2021/09/20 10:25:40;;;;;;;1.40;0.98;;;;;;;;;;6234887;28;20099;-72
2021/09/20 10:28:42;;;;;;;2.28;0.85;;;;;;;;;;6248134;28;20073;-76
2021/09/20 10:31:49;;;;;;;1.38;0.70;;;;;;;;;;6239375;28;20045;-74
2021/09/20 10:34:50;;;;;;;3.58;1.15;;;;;;;;;;6248238;28;20053;-72
2021/09/20 10:37:52;;;;;;;1.88;1.13;;;;;;;;;;6230313;28;20140;-72
2021/09/20 10:41:10;;;;;;;3.38;1.08;;;;;;;;;;6219537;28;20124;-74
2021/09/20 10:44:13;;;;;;;1.75;0.90;;;;;;;;;;6241092;28;20046;-76
2021/09/20 10:47:16;;;;;;;;;;;;;;;;;;6236638;28;20049;-75
2021/09/20 10:50:44;;;;;;;1.08;0.98;;;;;;;;;;6237729;28;19992;-74
2021/09/20 10:53:46;;;;;;;2.00;1.30;;;;;;;;;;6247497;28;20057;-74
2021/09/20 10:56:51;;;;;;;1.73;1.10;;;;;;;;;;6242111;28;20128;-73
2021/09/20 10:59:53;;;;;;;2.47;1.25;;;;;;;;;;6246997;28;20042;-73
2021/09/20 11:02:56;;;;;;;3.50;1.30;;;;;;;;;;6239183;28;20050;-74
2021/09/20 11:06:19;;;;;;;1.83;1.15;;;;;;;;;;6238729;28;20044;-73
2021/09/20 11:09:58;;;;;;;1.80;1.35;;;;;;;;;;6244428;28;20045;-74
2021/09/20 11:13:03;;;;;;;2.83;1.02;;;;;;;;;;6229479;28;20111;-78
2021/09/20 11:16:05;;;;;;;1.52;1.10;;;;;;;;;;6238520;28;20041;-81
2021/09/20 11:19:44;;;;;;;2.53;1.42;;;;;;;;;;6242786;28;20061;-74
2021/09/20 11:22:46;;;;;;;2.03;1.30;;;;;;;;;;6240600;28;20042;-76
2021/09/20 11:26:16;;;;;;;2.58;1.00;;;;;;;;;;6233920;28;20133;-74
2021/09/20 11:29:24;;;;;;;1.45;0.95;;;;;;;;;;6222956;28;20065;-75
2021/09/20 11:32:26;;;;;;;2.05;1.10;;;;;;;;;;6214204;28;20041;-75
2021/09/20 11:35:32;;;;;;;2.47;1.20;;;;;;;;;;6216526;28;20499;-72
2021/09/20 11:38:34;;;;;;;1.48;0.90;;;;;;;;;;6228328;28;20132;-72
2021/09/20 11:41:35;;;;;;;1.05;0.90;;;;;;;;;;6239521;28;20195;-74
2021/09/20 11:44:37;;;;;;;2.70;0.93;;;;;;;;;;6248005;28;20060;-77
2021/09/20 11:47:42;;;;;;;3.42;0.80;;;;;;;;;;6228706;28;20050;-75
2021/09/20 11:50:44;;;;;;;1.10;0.95;;;;;;;;;;6219307;28;20128;-74
2021/09/20 11:53:46;;;;;;;2.28;1.27;;;;;;;;;;6249075;28;20128;-74
2021/09/20 11:56:48;;;;;;;1.88;1.30;;;;;;;;;;6243210;28;20050;-74
2021/09/20 11:59:50;;;;;;;3.40;1.40;;;;;;;;;;6246262;28;20046;-78
2021/09/20 12:02:54;;;;;;;1.50;1.10;;;;;;;;;;6240373;28;20459;-73
2021/09/20 12:06:00;;;;;;;3.05;1.20;;;;;;;;;;6240841;28;20562;-73
2021/09/20 12:09:04;;;;;;;2.17;1.00;;;;;;;;;;6247721;28;20064;-74
2021/09/20 12:12:06;;;;;;;2.65;1.13;;;;;;;;;;6239858;28;20049;-76
2021/09/20 12:15:12;;;;;;;1.17;0.90;;;;;;;;;;6245701;28;20045;-78
2021/09/20 12:18:16;;;;;;;2.08;1.00;;;;;;;;;;6240492;28;20044;-74
2021/09/20 12:21:19;;;;;;;2.08;0.70;;;;;;;;;;6240104;28;20119;-74
2021/09/20 12:24:21;;;;;;;1.35;0.80;;;;;;;;;;6247124;28;20485;-73
2021/09/20 12:27:23;;;;;;;0.77;0.73;;;;;;;;;;6240217;28;20132;-74
2021/09/20 12:30:26;;;;;;;2.88;0.68;;;;;;;;;;6221510;28;20152;-79
2021/09/20 12:33:28;;;;;;;0.82;0.60;;;;;;;;;;6226428;28;20136;-74
2021/09/20 12:36:33;;;;;;;1.23;0.77;;;;;;;;;;6241647;28;20045;-73
2021/09/20 12:39:36;;;;;;;2.20;0.70;;;;;;;;;;6247659;28;20572;-74
2021/09/20 12:42:37;;;;;;;1.60;0.85;;;;;;;;;;6220331;28;20053;-75
2021/09/20 12:45:41;;;;;;;1.08;0.80;;;;;;;;;;6228524;28;20093;-74
2021/09/20 12:48:46;;;;;;;2.28;1.10;;;;;;;;;;6244103;28;20053;-74
2021/09/20 12:51:48;;;;;;;2.22;0.90;;;;;;;;;;6228728;28;20056;-74
2021/09/20 12:54:51;;;;;;;2.08;1.13;;;;;;;;;;6242272;28;20136;-74
2021/09/20 12:57:55;;;;;;;1.27;0.63;;;;;;;;;;6242229;28;20105;-75
2021/09/20 13:00:58;;;;;;;1.35;0.65;;;;;;;;;;6240862;28;20042;-74
2021/09/20 13:04:02;;;;;;;2.13;0.50;;;;;;;;;;6244469;28;20069;-80
2021/09/20 13:07:11;;;;;;;2.88;0.70;;;;;;;;;;6233499;28;20594;-79
2021/09/20 13:10:15;;;;;;;2.25;0.65;;;;;;;;;;6235858;28;20068;-78
2021/09/20 13:13:30;;;;;;;0.60;0.52;;;;;;;;;;6246229;28;20101;-73
2021/09/20 13:16:39;;;;;;;2.58;0.77;;;;;;;;;;6238678;28;20500;-73
2021/09/20 13:19:59;;;;;;;1.48;0.68;;;;;;;;;;6238420;28;20653;-72
2021/09/20 13:23:04;;;;;;;1.20;0.60;;;;;;;;;;6233768;28;20045;-72
2021/09/20 13:26:06;;;;;;;1.05;0.60;;;;;;;;;;6233752;28;20502;-72
2021/09/20 13:29:08;;;;;;;0.95;0.60;;;;;;;;;;6245632;28;20069;-74
2021/09/20 13:32:09;;;;;;;1.10;0.50;;;;;;;;;;6232460;28;20381;-73
2021/09/20 13:35:20;;;;;;;2.22;0.80;;;;;;;;;;6240486;28;20561;-75
2021/09/20 13:38:25;;;;;;;1.77;0.80;;;;;;;;;;6240218;28;20072;-75
2021/09/20 13:41:26;;;;;;;3.40;0.80;;;;;;;;;;6235963;28;20166;-71
2021/09/20 13:44:28;;;;;;;3.15;1.80;;;;;;;;;;6235867;28;20099;-72
2021/09/20 13:47:30;;;;;;;0.77;0.60;;;;;;;;;;6224083;28;20577;-72
2021/09/20 13:50:32;;;;;;;1.00;0.50;;;;;;;;;;6233398;28;20052;-73
2021/09/20 13:53:35;;;;;;;11.95;0.98;;;;;;;;;;6239656;28;20144;-72
2021/09/20 13:56:36;;;;;;;;;;;;;;;;;;6238718;28;20053;-72
2021/09/20 13:59:38;;;;;;;1.67;0.60;;;;;;;;;;6235751;28;19921;-71
2021/09/20 14:02:41;;;;;;;5.15;0.65;;;;;;;;;;6228098;28;20163;-78
2021/09/20 14:05:44;;;;;;;0.70;0.52;;;;;;;;;;6228943;28;20659;-74
2021/09/20 14:08:47;;;;;;;1.23;0.60;;;;;;;;;;6232763;28;20133;-76
2021/09/20 14:11:49;;;;;;;;;;;;;;;;;;6211984;28;20053;-76
2021/09/20 14:14:51;;;;;;;0.98;0.75;;;;;;;;;;6214132;28;19926;-75
2021/09/20 14:17:54;;;;;;;1.35;0.70;;;;;;;;;;6203015;28;20056;-73
2021/09/20 14:20:56;;;;;;;1.30;0.90;;;;;;;;;;6203820;28;20050;-73
2021/09/20 14:23:59;;;;;;;3.22;0.95;;;;;;;;;;6212064;28;20514;-71
2021/09/20 14:27:00;;;;;;;1.98;0.50;;;;;;;;;;6211600;28;20042;-72
2021/09/20 14:30:03;;;;;;;0.55;0.47;;;;;;;;;;6236840;28;21808;-73
2021/09/20 14:33:05;;;;;;;3.00;0.50;;;;;;;;;;6223322;28;20049;-72
2021/09/20 14:36:07;;;;;;;0.73;0.57;;;;;;;;;;6222572;28;20057;-72
2021/09/20 14:39:10;;;;;;;1.33;0.50;;;;;;;;;;6234342;28;20045;-72
2021/09/20 14:42:12;;;;;;;0.98;0.63;;;;;;;;;;6223496;28;20515;-71
2021/09/20 14:45:15;;;;;;;1.55;0.70;;;;;;;;;;6226906;28;20057;-74
2021/09/20 14:48:17;;;;;;;0.98;0.70;;;;;;;;;;6223959;28;20046;-74
2021/09/20 14:51:19;;;;;;;2.15;0.82;;;;;;;;;;6223743;28;20647;-74
2021/09/20 14:54:21;;;;;;;2.33;0.90;;;;;;;;;;6229196;28;20187;-73
2021/09/20 14:57:23;;;;;;;1.15;0.70;;;;;;;;;;6225184;28;20536;-73
2021/09/20 15:00:25;;;;;;;2.42;0.70;;;;;;;;;;6225945;28;20113;-75
2021/09/20 15:03:27;;;;;;;2.70;0.60;;;;;;;;;;6199298;28;20177;-72
2021/09/20 15:06:28;;;;;;;2.55;0.90;;;;;;;;;;6203271;28;20084;-73
2021/09/20 15:09:31;;;;;;;2.28;0.80;;;;;;;;;;6229389;28;20049;-71
2021/09/20 15:12:33;;;;;;;4.28;0.98;;;;;;;;;;6223988;28;20144;-74
2021/09/20 15:15:35;;;;;;;1.42;1.02;;;;;;;;;;6224469;28;20430;-74
2021/09/20 15:18:36;;;;;;;1.58;0.70;;;;;;;;;;6224238;28;20068;-73
2021/09/20 15:21:38;;;;;;;2.03;0.95;;;;;;;;;;6221941;28;20846;-73
2021/09/20 15:24:41;;;;;;;2.05;1.25;;;;;;;;;;6226646;28;20698;-73
2021/09/20 15:27:44;;;;;;;2.28;1.00;;;;;;;;;;6222677;28;20045;-73
2021/09/20 15:30:45;;;;;;;2.70;0.93;;;;;;;;;;6196256;28;20045;-73
2021/09/20 15:33:47;;;;;;;3.13;1.15;;;;;;;;;;6202723;28;20118;-71
2021/09/20 15:36:49;;;;;;;5.32;0.80;;;;;;;;;;6200405;28;20593;-73
2021/09/20 15:39:52;;;;;;;2.73;0.80;;;;;;;;;;6210526;28;20193;-73
2021/09/20 15:42:55;;;;;;;7.35;1.20;;;;;;;;;;6204482;28;20049;-72
2021/09/20 15:45:57;;;;;;;;;;;;;;;;;;6228198;28;20042;-73
2021/09/20 15:48:58;;;;;;;2.50;0.98;;;;;;;;;;6226976;28;20150;-71
2021/09/20 15:52:00;;;;;;;2.97;1.08;;;;;;;;;;6225237;28;20148;-72
2021/09/20 15:55:04;;;;;;;4.30;1.05;;;;;;;;;;6231036;28;20042;-72
2021/09/20 15:58:05;;;;;;;1.40;0.90;;;;;;;;;;6224092;28;20069;-73
2021/09/20 16:01:07;;;;;;;5.25;1.15;;;;;;;;;;6228845;28;20184;-73
2021/09/20 16:04:08;;;;;;;4.93;1.40;;;;;;;;;;6234078;28;20080;-74
2021/09/20 16:07:10;;;;;;;5.15;1.20;;;;;;;;;;6230365;28;20570;-74
2021/09/20 16:10:16;;;;;;;2.63;1.75;;;;;;;;;;6237171;28;20135;-74
2021/09/20 16:13:18;;;;;;;2.17;1.20;;;;;;;;;;6235056;28;20163;-73
2021/09/20 16:16:20;;;;;;;3.65;1.30;;;;;;;;;;6231118;28;20084;-73
2021/09/20 16:19:21;;;;;;;3.40;1.88;;;;;;;;;;6231672;28;20155;-73
2021/09/20 16:22:23;;;;;;;5.25;1.98;;;;;;;;;;6232412;28;20452;-75
2021/09/20 16:25:27;;;;;;;2.78;1.30;;;;;;;;;;6230855;28;20048;-74
2021/09/20 16:28:29;;;;;;;2.45;1.70;;;;;;;;;;6233425;28;20128;-74
2021/09/20 16:31:31;;;;;;;3.42;1.50;;;;;;;;;;6226771;28;20076;-74
2021/09/20 16:34:33;;;;;;;3.80;1.90;;;;;;;;;;6237674;28;20136;-72
2021/09/20 16:37:34;;;;;;;3.33;1.83;;;;;;;;;;6232538;28;20624;-74
2021/09/20 16:40:38;;;;;;;6.80;1.95;;;;;;;;;;6239274;28;20128;-75
2021/09/20 16:43:39;;;;;;;3.38;2.00;;;;;;;;;;6236753;28;20057;-72
2021/09/20 16:46:41;;;;;;;2.00;1.25;;;;;;;;;;6206221;28;20127;-69
2021/09/20 16:49:43;;;;;;;9.57;2.35;;;;;;;;;;6217107;28;20045;-70
2021/09/20 16:52:45;;;;;;;5.93;3.28;;;;;;;;;;6207857;28;20048;-70
2021/09/20 16:55:48;;;;;;;3.97;2.88;;;;;;;;;;6204766;28;20576;-69
2021/09/20 16:58:49;;;;;;;3.15;1.67;;;;;;;;;;6212532;28;20131;-68
2021/09/20 17:01:51;;;;;;;3.63;2.08;;;;;;;;;;6201569;28;20133;-69
2021/09/20 17:04:53;;;;;;;2.58;1.65;;;;;;;;;;6210509;28;20486;-69
2021/09/20 17:07:55;;;;;;;2.88;1.40;;;;;;;;;;6206522;28;20146;-69
2021/09/20 17:10:58;;;;;;;2.75;1.30;;;;;;;;;;6211691;28;20406;-69
2021/09/20 17:13:59;;;;;;;2.55;1.20;;;;;;;;;;6237318;28;20207;-69
2021/09/20 17:17:01;;;;;;;2.83;1.20;;;;;;;;;;6223508;28;20168;-68
2021/09/20 17:20:04;;;;;;;2.13;1.20;;;;;;;;;;6231912;28;20045;-69
2021/09/20 17:23:05;;;;;;;3.35;1.42;;;;;;;;;;6216122;28;20049;-68
2021/09/20 17:26:08;;;;;;;2.50;1.10;;;;;;;;;;6226171;28;20678;-69
2021/09/20 17:29:10;;;;;;;3.33;1.45;;;;;;;;;;6230791;28;20049;-68
2021/09/20 17:32:12;;;;;;;3.40;1.20;;;;;;;;;;6223023;28;20144;-69
2021/09/20 17:35:16;;;;;;;2.55;1.30;;;;;;;;;;6227170;28;20044;-71
2021/09/20 17:38:17;;;;;;;2.35;1.60;;;;;;;;;;6234426;28;20184;-71
2021/09/20 17:41:20;;;;;;;5.50;2.28;;;;;;;;;;6229113;28;20545;-72
2021/09/20 17:44:22;;;;;;;4.13;2.03;;;;;;;;;;6228786;28;20137;-67
2021/09/20 17:47:24;;;;;;;5.43;1.90;;;;;;;;;;6220982;28;20060;-69
2021/09/20 17:50:25;;;;;;;3.72;1.55;;;;;;;;;;6222618;28;20154;-69
2021/09/20 17:53:27;;;;;;;4.05;2.00;;;;;;;;;;6232517;28;20129;-69
2021/09/20 17:56:30;;;;;;;7.72;2.80;;;;;;;;;;6227996;28;20209;-69
2021/09/20 17:59:31;;;;;;;9.02;2.50;;;;;;;;;;6231992;28;20041;-70
2021/09/20 18:02:33;;;;;;;4.65;2.05;;;;;;;;;;6218751;28;20087;-70
2021/09/20 18:05:35;;;;;;;4.60;2.72;;;;;;;;;;6229536;28;20912;-71
2021/09/20 18:08:36;;;;;;;6.30;2.65;;;;;;;;;;6236479;28;20056;-72
2021/09/20 18:11:39;;;;;;;4.43;2.30;;;;;;;;;;6234545;28;20128;-70
2021/09/20 18:14:41;;;;;;;5.68;2.08;;;;;;;;;;6240036;28;20045;-70
2021/09/20 18:17:44;;;;;;;4.40;1.90;;;;;;;;;;6235383;28;20083;-72
2021/09/20 18:20:45;;;;;;;6.30;2.10;;;;;;;;;;6235736;28;20098;-73